Time;durP1;ratioP1;P1;durP2;ratioP2;P2;SDS_P1;SDS_P2;PMS_P1;PMS_P2;Temp;Humidity;BMP_temperature;BMP_pressure;BME280_temperature;BME280_humidity;BME280_pressure;Samples;Min_cycle;Max_cycle;Signal;HPM_P1;HPM_P2
2022/09/10 00:01:22;;;;;;;16.80;12.65;;;14.70;99.90;;;;;;5030473;28;20033;-67
2022/09/10 00:03:48;;;;;;;17.17;12.73;;;14.70;99.90;;;;;;5045494;28;20052;-68
2022/09/10 00:06:15;;;;;;;17.13;12.60;;;14.70;99.90;;;;;;5031547;28;20044;-66
2022/09/10 00:08:41;;;;;;;18.15;12.23;;;14.70;99.90;;;;;;5045552;28;20292;-67
2022/09/10 00:11:09;;;;;;;16.92;12.77;;;14.70;99.90;;;;;;5046487;28;20041;-67
2022/09/10 00:13:38;;;;;;;19.05;12.60;;;14.70;99.90;;;;;;5043059;28;20486;-67
2022/09/10 00:16:06;;;;;;;18.30;12.63;;;14.70;99.90;;;;;;5046077;28;20037;-68
2022/09/10 00:18:33;;;;;;;17.73;12.40;;;14.70;99.90;;;;;;5030222;28;20049;-67
2022/09/10 00:21:01;;;;;;;16.25;13.55;;;14.70;99.90;;;;;;5060841;28;20049;-68
2022/09/10 00:23:28;;;;;;;19.90;12.75;;;14.70;99.90;;;;;;5028093;28;20044;-67
2022/09/10 00:25:55;;;;;;;19.92;14.15;;;14.70;99.90;;;;;;5042067;28;20037;-67
2022/09/10 00:28:22;;;;;;;18.48;14.27;;;14.60;99.90;;;;;;5047542;28;20505;-68
2022/09/10 00:30:50;;;;;;;17.00;13.25;;;14.70;99.90;;;;;;5046017;28;20056;-68
2022/09/10 00:33:18;;;;;;;16.30;12.80;;;14.60;99.90;;;;;;5045968;28;20456;-67
2022/09/10 00:35:44;;;;;;;17.85;13.40;;;14.60;99.90;;;;;;5046382;28;20421;-67
2022/09/10 00:38:11;;;;;;;16.05;12.95;;;14.60;99.90;;;;;;5048190;28;20082;-67
2022/09/10 00:40:38;;;;;;;17.42;13.20;;;14.60;99.90;;;;;;5027836;28;20131;-67
2022/09/10 00:43:19;;;;;;;19.90;13.55;;;14.60;99.90;;;;;;5045674;28;20145;-67
2022/09/10 00:45:51;;;;;;;21.17;13.90;;;14.60;99.90;;;;;;5029784;28;20418;-67
2022/09/10 00:48:23;;;;;;;19.70;14.13;;;14.50;99.90;;;;;;5029576;28;20142;-67
2022/09/10 00:50:53;;;;;;;18.33;13.60;;;14.60;99.90;;;;;;5045116;28;20045;-67
2022/09/10 00:53:25;;;;;;;19.10;15.30;;;14.50;99.90;;;;;;5032331;28;20055;-67
2022/09/10 00:55:53;;;;;;;20.20;14.43;;;14.50;99.90;;;;;;5044238;28;20517;-67
2022/09/10 00:58:21;;;;;;;20.70;15.93;;;14.60;99.90;;;;;;5045509;28;20478;-67
2022/09/10 01:00:47;;;;;;;16.30;14.07;;;14.60;99.90;;;;;;5042231;28;20040;-67
2022/09/10 01:03:15;;;;;;;17.02;13.98;;;14.60;99.90;;;;;;5032082;28;20032;-67
2022/09/10 01:05:44;;;;;;;18.13;13.75;;;14.60;99.90;;;;;;5040275;28;20044;-67
2022/09/10 01:08:15;;;;;;;16.27;13.18;;;14.60;99.90;;;;;;5029365;28;20368;-67
2022/09/10 01:10:56;;;;;;;19.02;13.60;;;14.60;99.90;;;;;;5042442;28;20237;-67
2022/09/10 01:13:32;;;;;;;18.55;14.27;;;14.60;99.90;;;;;;5049653;28;20049;-67
2022/09/10 01:16:24;;;;;;;18.55;13.98;;;14.60;99.90;;;;;;5032430;28;20045;-67
2022/09/10 01:18:54;;;;;;;18.75;13.63;;;14.60;99.90;;;;;;5053036;28;20040;-67
2022/09/10 01:21:39;;;;;;;17.00;13.80;;;14.60;99.90;;;;;;5032266;28;20152;-67
2022/09/10 01:24:23;;;;;;;19.25;13.57;;;14.70;99.90;;;;;;5053719;28;20163;-67
2022/09/10 01:27:07;;;;;;;16.80;13.98;;;14.70;99.90;;;;;;5043815;28;20338;-67
2022/09/10 01:29:58;;;;;;;16.98;13.43;;;14.70;99.90;;;;;;5051039;28;20514;-67
2022/09/10 01:32:59;;;;;;;17.42;13.77;;;14.70;99.90;;;;;;5037425;28;20053;-67
2022/09/10 01:35:24;;;;;;;21.15;13.75;;;14.70;99.90;;;;;;5045278;28;20132;-67
2022/09/10 01:37:55;;;;;;;19.63;14.45;;;14.70;99.90;;;;;;5051196;28;20116;-66
2022/09/10 01:40:28;;;;;;;21.48;14.20;;;14.70;99.90;;;;;;5051870;28;20079;-67
2022/09/10 01:43:04;;;;;;;18.83;14.00;;;14.70;99.90;;;;;;5032460;28;20045;-67
2022/09/10 01:45:55;;;;;;;19.23;13.73;;;14.70;99.90;;;;;;5049490;28;20687;-68
2022/09/10 01:48:38;;;;;;;26.30;16.13;;;14.70;99.90;;;;;;5045070;28;20045;-67
2022/09/10 01:51:43;;;;;;;17.40;13.60;;;14.70;99.90;;;;;;5050605;28;20117;-68
2022/09/10 01:54:38;;;;;;;17.77;14.40;;;14.70;99.90;;;;;;5046774;28;20044;-68
2022/09/10 01:57:27;;;;;;;20.42;14.75;;;14.70;99.90;;;;;;5047844;28;20043;-67
2022/09/10 02:00:01;;;;;;;19.30;14.73;;;14.70;99.90;;;;;;5050307;28;20048;-67
2022/09/10 02:02:44;;;;;;;17.55;14.45;;;14.70;99.90;;;;;;5047062;28;20124;-67
2022/09/10 02:05:12;;;;;;;21.45;14.93;;;14.70;99.90;;;;;;5049790;28;20037;-67
2022/09/10 02:07:38;;;;;;;19.05;14.98;;;14.70;99.90;;;;;;5048725;28;20072;-67
2022/09/10 02:10:07;;;;;;;21.00;14.75;;;14.70;99.90;;;;;;5048110;28;20080;-67
2022/09/10 02:12:34;;;;;;;20.83;14.73;;;14.70;99.90;;;;;;5043324;28;20121;-67
2022/09/10 02:15:00;;;;;;;19.50;14.55;;;14.70;99.90;;;;;;5045988;28;20506;-67
2022/09/10 02:17:35;;;;;;;19.27;14.15;;;14.80;99.90;;;;;;5049789;28;20043;-67
2022/09/10 02:20:04;;;;;;;20.65;14.40;;;14.80;99.90;;;;;;5049385;28;20696;-67
2022/09/10 02:22:34;;;;;;;20.45;14.25;;;14.80;99.90;;;;;;5047815;28;20148;-67
2022/09/10 02:25:00;;;;;;;17.90;14.18;;;14.80;99.90;;;;;;5046839;28;20123;-68
2022/09/10 02:27:28;;;;;;;19.25;13.80;;;14.80;99.90;;;;;;5048737;28;20115;-67
2022/09/10 02:29:55;;;;;;;27.08;16.02;;;14.80;99.90;;;;;;5044693;28;20044;-67
2022/09/10 02:32:21;;;;;;;17.60;14.02;;;14.80;99.90;;;;;;5033547;28;20037;-67
2022/09/10 02:34:47;;;;;;;21.17;14.32;;;14.80;99.90;;;;;;5048343;28;20052;-67
2022/09/10 02:37:15;;;;;;;24.63;14.43;;;14.80;99.90;;;;;;5031272;28;20352;-67
2022/09/10 02:39:42;;;;;;;19.60;14.38;;;14.90;99.90;;;;;;5047731;28;20053;-67
2022/09/10 02:42:08;;;;;;;19.73;14.43;;;14.90;99.90;;;;;;5031068;28;20044;-67
2022/09/10 02:44:34;;;;;;;20.52;14.90;;;14.90;99.90;;;;;;5044879;28;20033;-67
2022/09/10 02:46:59;;;;;;;22.70;14.57;;;14.90;99.90;;;;;;5047065;28;20059;-67
2022/09/10 02:49:25;;;;;;;18.60;14.52;;;14.90;99.90;;;;;;5051525;28;20530;-67
2022/09/10 02:51:51;;;;;;;19.92;14.80;;;14.90;99.90;;;;;;5045197;28;20275;-67
2022/09/10 02:54:19;;;;;;;18.98;14.77;;;14.90;99.90;;;;;;5050312;28;20040;-67
2022/09/10 02:56:48;;;;;;;21.25;14.90;;;14.90;99.90;;;;;;5042320;28;20042;-66
2022/09/10 02:59:15;;;;;;;21.67;15.25;;;14.90;99.90;;;;;;5051096;28;20036;-67
2022/09/10 03:01:41;;;;;;;19.58;14.70;;;14.80;99.90;;;;;;5029817;28;20029;-67
2022/09/10 03:04:07;;;;;;;21.40;15.18;;;14.80;99.90;;;;;;5050779;28;20055;-67
2022/09/10 03:06:32;;;;;;;21.25;15.18;;;14.80;99.90;;;;;;5047446;28;20041;-67
2022/09/10 03:08:58;;;;;;;21.80;14.75;;;14.90;99.90;;;;;;5032649;28;20040;-67
2022/09/10 03:11:26;;;;;;;18.85;13.95;;;14.90;99.90;;;;;;5044421;28;20065;-67
2022/09/10 03:13:52;;;;;;;19.88;13.60;;;14.90;99.90;;;;;;5056909;28;20449;-67
2022/09/10 03:16:18;;;;;;;20.83;14.65;;;14.80;99.90;;;;;;5014295;28;20123;-67
2022/09/10 03:18:44;;;;;;;23.08;15.02;;;14.80;99.90;;;;;;5045471;28;20052;-67
2022/09/10 03:21:19;;;;;;;18.90;13.55;;;14.80;99.90;;;;;;5048834;28;20389;-67
2022/09/10 03:23:48;;;;;;;24.23;15.07;;;14.80;99.90;;;;;;5033026;28;20033;-67
2022/09/10 03:26:15;;;;;;;22.52;15.02;;;14.80;99.90;;;;;;5011472;28;20045;-67
2022/09/10 03:28:44;;;;;;;21.25;14.57;;;14.80;99.90;;;;;;5047987;28;20048;-67
2022/09/10 03:31:10;;;;;;;20.20;13.73;;;14.80;99.90;;;;;;5048177;28;20043;-67
2022/09/10 03:33:36;;;;;;;22.50;14.68;;;14.80;99.90;;;;;;5045829;28;20049;-66
2022/09/10 03:36:06;;;;;;;22.17;14.85;;;14.80;99.90;;;;;;5046327;28;20498;-67
2022/09/10 03:38:32;;;;;;;23.90;15.27;;;14.80;99.90;;;;;;5044405;28;20534;-67
2022/09/10 03:41:00;;;;;;;21.42;14.18;;;14.80;99.90;;;;;;5050495;28;20081;-67
2022/09/10 03:43:28;;;;;;;23.15;14.70;;;14.80;99.90;;;;;;5042390;28;20102;-67
2022/09/10 03:45:54;;;;;;;26.88;14.70;;;14.80;99.90;;;;;;5029448;28;20041;-67
2022/09/10 03:48:20;;;;;;;22.63;14.63;;;14.90;99.90;;;;;;5044452;28;20048;-68
2022/09/10 03:50:48;;;;;;;26.13;14.85;;;14.80;99.90;;;;;;5047837;28;20064;-68
2022/09/10 03:53:15;;;;;;;20.90;14.38;;;14.80;99.90;;;;;;5046295;28;20049;-67
2022/09/10 03:55:45;;;;;;;23.45;14.02;;;14.90;99.90;;;;;;5050343;28;20041;-68
2022/09/10 03:58:11;;;;;;;27.02;15.20;;;14.90;99.90;;;;;;5043253;28;20032;-67
2022/09/10 04:00:37;;;;;;;24.83;15.70;;;14.90;99.90;;;;;;5049024;28;20345;-67
2022/09/10 04:03:02;;;;;;;30.98;16.65;;;14.90;99.90;;;;;;5029883;28;20449;-67
2022/09/10 04:05:28;;;;;;;26.33;15.35;;;14.90;99.90;;;;;;5050413;28;20047;-67
2022/09/10 04:07:57;;;;;;;28.30;16.55;;;14.90;99.90;;;;;;5026849;28;20037;-68
2022/09/10 04:10:29;;;;;;;26.60;16.42;;;14.90;99.90;;;;;;5045173;28;20131;-68
2022/09/10 04:12:55;;;;;;;22.92;15.45;;;14.90;99.90;;;;;;5045917;28;20053;-68
2022/09/10 04:15:23;;;;;;;27.88;16.38;;;14.90;99.90;;;;;;5044919;28;20052;-68
2022/09/10 04:17:53;;;;;;;24.40;16.63;;;14.90;99.90;;;;;;5047316;28;20509;-68
2022/09/10 04:20:23;;;;;;;23.35;16.05;;;14.90;99.90;;;;;;5046165;28;20037;-68
2022/09/10 04:22:50;;;;;;;26.10;16.33;;;14.90;99.90;;;;;;5048699;28;20506;-68
2022/09/10 04:25:17;;;;;;;27.45;16.75;;;14.90;99.90;;;;;;5045577;28;20486;-68
2022/09/10 04:27:46;;;;;;;28.05;16.42;;;14.90;99.90;;;;;;5044571;28;20043;-68
2022/09/10 04:30:12;;;;;;;28.88;17.02;;;14.90;99.90;;;;;;5062517;28;20037;-67
2022/09/10 04:32:38;;;;;;;26.15;15.43;;;15.00;99.90;;;;;;5030125;28;20068;-68
2022/09/10 04:35:05;;;;;;;25.70;16.13;;;14.90;99.90;;;;;;5044675;28;20465;-68
2022/09/10 04:37:32;;;;;;;22.45;16.63;;;14.90;99.90;;;;;;5030897;28;20103;-67
2022/09/10 04:39:58;;;;;;;23.60;16.20;;;14.90;99.90;;;;;;5042900;28;21415;-67
2022/09/10 04:42:24;;;;;;;28.52;17.00;;;14.90;99.90;;;;;;5046362;28;20359;-67
2022/09/10 04:44:50;;;;;;;28.25;16.27;;;14.90;99.90;;;;;;5028331;28;20070;-68
2022/09/10 04:47:17;;;;;;;26.70;16.50;;;14.90;99.90;;;;;;5046651;28;20043;-68
2022/09/10 04:49:43;;;;;;;26.45;15.52;;;14.90;99.90;;;;;;5044516;28;20429;-67
2022/09/10 04:52:12;;;;;;;23.98;15.90;;;14.90;99.90;;;;;;5049691;28;20041;-68
2022/09/10 04:54:38;;;;;;;29.83;17.60;;;14.90;99.90;;;;;;5045278;28;20041;-68
2022/09/10 04:57:05;;;;;;;31.10;17.13;;;14.90;99.90;;;;;;5049623;28;20029;-68
2022/09/10 04:59:31;;;;;;;27.42;16.77;;;14.90;99.90;;;;;;5044330;28;20037;-68
2022/09/10 05:01:57;;;;;;;31.70;17.60;;;14.90;99.90;;;;;;5029050;28;20073;-67
2022/09/10 05:04:24;;;;;;;26.15;18.02;;;14.90;99.90;;;;;;5045604;28;20138;-68
2022/09/10 05:06:49;;;;;;;26.95;17.58;;;15.00;99.90;;;;;;5027016;28;20036;-66
2022/09/10 05:09:16;;;;;;;30.85;17.20;;;15.00;99.90;;;;;;5030575;28;20044;-68
2022/09/10 05:11:42;;;;;;;30.73;18.02;;;15.00;99.90;;;;;;5047108;28;20051;-68
2022/09/10 05:14:09;;;;;;;30.42;17.65;;;15.00;99.90;;;;;;5043840;28;20421;-67
2022/09/10 05:16:35;;;;;;;27.65;17.20;;;15.00;99.90;;;;;;5045473;28;20033;-68
2022/09/10 05:19:01;;;;;;;29.77;17.52;;;15.00;99.90;;;;;;5048278;28;20041;-68
2022/09/10 05:21:28;;;;;;;33.38;19.27;;;15.00;99.90;;;;;;5030729;28;20044;-67
2022/09/10 05:23:54;;;;;;;35.35;19.38;;;15.00;99.90;;;;;;5029359;28;20827;-67
2022/09/10 05:26:21;;;;;;;35.35;19.00;;;15.00;99.90;;;;;;5043632;28;20033;-68
2022/09/10 05:28:47;;;;;;;33.80;19.23;;;15.00;99.90;;;;;;5043752;28;20048;-68
2022/09/10 05:31:13;;;;;;;31.63;19.33;;;15.00;99.90;;;;;;5028272;28;20037;-68
2022/09/10 05:33:39;;;;;;;29.25;18.95;;;14.90;99.90;;;;;;5024656;28;20047;-68
2022/09/10 05:36:08;;;;;;;30.23;18.52;;;15.00;99.90;;;;;;5027456;28;20044;-67
2022/09/10 05:38:34;;;;;;;32.45;18.70;;;15.00;99.90;;;;;;5028892;28;20032;-68
2022/09/10 05:41:00;;;;;;;40.03;20.17;;;15.00;99.90;;;;;;5045160;28;20506;-67
2022/09/10 05:43:26;;;;;;;30.48;18.80;;;15.00;99.90;;;;;;5041041;28;20116;-68
2022/09/10 05:45:53;;;;;;;33.47;21.20;;;15.00;99.90;;;;;;5045608;28;20040;-68
2022/09/10 05:48:20;;;;;;;35.42;19.85;;;15.00;99.90;;;;;;5047735;28;20059;-68
2022/09/10 05:50:45;;;;;;;34.35;19.95;;;15.00;99.90;;;;;;5047399;28;20090;-68
2022/09/10 05:53:11;;;;;;;33.17;19.15;;;15.00;99.90;;;;;;5045290;28;20041;-67
2022/09/10 05:55:40;;;;;;;38.97;21.08;;;15.00;99.90;;;;;;5045654;28;20394;-68
2022/09/10 05:58:06;;;;;;;35.55;20.80;;;15.00;99.90;;;;;;5046157;28;20041;-68
2022/09/10 06:00:32;;;;;;;37.92;20.55;;;15.00;99.90;;;;;;5046410;28;20509;-67
2022/09/10 06:02:58;;;;;;;35.25;20.98;;;15.00;99.90;;;;;;5047821;28;20099;-68
2022/09/10 06:05:24;;;;;;;32.35;20.48;;;15.00;99.90;;;;;;5049213;28;20040;-68
2022/09/10 06:07:50;;;;;;;40.00;21.63;;;15.00;99.90;;;;;;5033653;28;20093;-68
2022/09/10 06:10:16;;;;;;;34.28;20.85;;;15.00;99.90;;;;;;5049244;28;20044;-67
2022/09/10 06:12:50;;;;;;;43.92;21.30;;;15.00;99.90;;;;;;5049342;28;20049;-68
2022/09/10 06:15:20;;;;;;;35.78;20.58;;;15.00;99.90;;;;;;5050057;28;20048;-67
2022/09/10 06:17:49;;;;;;;44.67;21.17;;;15.10;99.90;;;;;;5035054;28;20441;-68
2022/09/10 06:20:15;;;;;;;36.90;21.42;;;15.00;99.90;;;;;;5043880;28;20037;-68
2022/09/10 06:22:40;;;;;;;40.63;21.30;;;15.10;99.90;;;;;;5050975;28;20037;-67
2022/09/10 06:25:07;;;;;;;37.72;21.58;;;15.10;99.90;;;;;;5045965;28;20037;-68
2022/09/10 06:27:33;;;;;;;40.60;21.63;;;15.10;99.90;;;;;;5033288;28;20040;-68
2022/09/10 06:29:59;;;;;;;35.63;21.60;;;15.20;99.90;;;;;;5032144;28;20247;-68
2022/09/10 06:32:25;;;;;;;38.67;21.48;;;15.10;99.90;;;;;;5049865;28;20116;-67
2022/09/10 06:34:51;;;;;;;40.38;20.40;;;15.20;99.90;;;;;;5031814;28;20057;-68
2022/09/10 06:37:17;;;;;;;35.50;20.30;;;15.20;99.90;;;;;;5051006;28;20045;-67
2022/09/10 06:39:43;;;;;;;34.92;20.35;;;15.20;99.90;;;;;;5028432;28;20058;-68
2022/09/10 06:42:09;;;;;;;39.78;20.33;;;15.20;99.90;;;;;;5048611;28;20402;-68
2022/09/10 06:44:34;;;;;;;34.72;19.23;;;15.20;99.90;;;;;;5042386;28;20039;-66
2022/09/10 06:47:01;;;;;;;37.67;19.88;;;15.20;99.90;;;;;;5012006;28;20048;-68
2022/09/10 06:49:30;;;;;;;36.35;20.63;;;15.20;99.90;;;;;;5014638;28;20099;-67
2022/09/10 06:51:56;;;;;;;35.90;19.85;;;15.20;99.90;;;;;;5041057;28;20064;-67
2022/09/10 06:54:22;;;;;;;37.30;20.13;;;15.20;99.90;;;;;;5043029;28;20401;-68
2022/09/10 06:56:48;;;;;;;38.42;19.00;;;15.30;99.90;;;;;;5039164;28;20052;-68
2022/09/10 06:59:15;;;;;;;33.70;19.20;;;15.30;99.90;;;;;;5030702;28;20044;-68
2022/09/10 07:01:41;;;;;;;34.17;18.80;;;15.40;99.90;;;;;;5028835;28;20112;-67
2022/09/10 07:04:08;;;;;;;39.75;19.02;;;15.40;99.90;;;;;;5045687;28;20093;-68
2022/09/10 07:06:35;;;;;;;34.55;18.58;;;15.40;99.90;;;;;;5026223;28;20034;-67
2022/09/10 07:09:01;;;;;;;32.20;19.20;;;15.40;99.90;;;;;;5064860;28;20048;-68
2022/09/10 07:11:29;;;;;;;31.00;18.33;;;15.50;99.90;;;;;;5048780;28;20108;-68
2022/09/10 07:13:58;;;;;;;40.55;19.85;;;15.50;99.90;;;;;;5046025;28;20035;-67
2022/09/10 07:16:25;;;;;;;33.88;18.55;;;15.50;99.90;;;;;;5047490;28;20037;-68
2022/09/10 07:18:53;;;;;;;30.27;18.52;;;15.50;99.90;;;;;;5032795;28;20036;-68
2022/09/10 07:21:20;;;;;;;31.77;18.67;;;15.50;99.90;;;;;;5047598;28;20033;-68
2022/09/10 07:23:50;;;;;;;34.38;19.52;;;15.50;99.90;;;;;;5046343;28;20514;-68
2022/09/10 07:26:21;;;;;;;28.08;19.05;;;15.50;99.90;;;;;;5046895;28;20513;-68
2022/09/10 07:28:47;;;;;;;33.90;18.15;;;15.50;99.90;;;;;;5040015;28;20402;-68
2022/09/10 07:31:26;;;;;;;34.38;18.92;;;15.60;99.90;;;;;;5042516;28;20449;-68
2022/09/10 07:33:56;;;;;;;33.80;18.48;;;15.60;99.90;;;;;;5040770;28;20511;-67
2022/09/10 07:36:23;;;;;;;32.67;17.58;;;15.60;99.90;;;;;;5057895;28;20063;-68
2022/09/10 07:38:58;;;;;;;33.03;19.63;;;15.60;99.90;;;;;;5037599;28;20048;-68
2022/09/10 07:41:28;;;;;;;37.45;18.80;;;15.60;99.90;;;;;;5041047;28;20158;-67
2022/09/10 07:43:56;;;;;;;36.22;19.73;;;15.60;99.90;;;;;;5041960;28;20044;-68
2022/09/10 07:46:24;;;;;;;33.28;19.55;;;15.60;99.90;;;;;;5038438;28;20450;-67
2022/09/10 07:48:58;;;;;;;33.40;19.13;;;15.60;99.90;;;;;;5031159;28;20082;-67
2022/09/10 07:51:26;;;;;;;35.38;18.77;;;15.60;99.90;;;;;;5043572;28;20116;-68
2022/09/10 07:53:57;;;;;;;36.65;18.05;;;15.70;99.90;;;;;;5049178;28;20037;-68
2022/09/10 07:56:24;;;;;;;29.15;17.65;;;15.70;99.90;;;;;;5048920;28;20117;-68
2022/09/10 07:58:50;;;;;;;28.35;17.92;;;15.80;99.90;;;;;;5024776;28;20033;-67
2022/09/10 08:01:19;;;;;;;28.65;17.35;;;15.80;99.90;;;;;;5037435;28;20084;-68
2022/09/10 08:03:45;;;;;;;32.63;18.25;;;15.90;99.90;;;;;;5040761;28;20065;-66
2022/09/10 08:06:18;;;;;;;28.45;18.05;;;15.80;99.90;;;;;;5045956;28;20595;-68
2022/09/10 08:08:44;;;;;;;26.38;17.08;;;16.10;99.90;;;;;;5028451;28;20040;-68
2022/09/10 08:11:16;;;;;;;27.13;17.02;;;16.20;99.90;;;;;;5042715;28;20037;-68
2022/09/10 08:13:44;;;;;;;23.38;15.20;;;16.30;99.90;;;;;;5042356;28;20096;-66
2022/09/10 08:16:13;;;;;;;24.40;15.70;;;16.40;99.90;;;;;;5026332;28;20131;-68
2022/09/10 08:18:39;;;;;;;19.73;13.48;;;16.60;99.90;;;;;;5048579;28;20072;-68
2022/09/10 08:21:09;;;;;;;22.67;13.80;;;16.60;99.90;;;;;;5037282;28;20056;-68
2022/09/10 08:23:49;;;;;;;22.65;15.00;;;16.70;99.90;;;;;;5007763;28;20177;-67
2022/09/10 08:26:15;;;;;;;21.20;13.93;;;16.80;99.90;;;;;;5025934;28;20041;-67
2022/09/10 08:28:46;;;;;;;22.88;12.63;;;17.00;99.90;;;;;;5042122;28;20044;-67
2022/09/10 08:31:12;;;;;;;21.63;13.50;;;17.10;99.90;;;;;;5038488;28;20036;-67
2022/09/10 08:33:39;;;;;;;22.27;12.90;;;17.20;99.90;;;;;;5026487;28;20124;-68
2022/09/10 08:36:10;;;;;;;18.77;12.73;;;17.30;99.90;;;;;;5040114;28;20087;-66
2022/09/10 08:38:40;;;;;;;22.63;13.47;;;17.30;99.90;;;;;;5038277;28;20045;-68
2022/09/10 08:41:34;;;;;;;19.52;13.07;;;17.30;99.90;;;;;;5041311;28;20041;-68
2022/09/10 08:44:09;;;;;;;18.05;12.20;;;17.40;99.90;;;;;;5020429;28;20068;-68
2022/09/10 08:46:43;;;;;;;18.27;12.15;;;17.30;99.90;;;;;;5040000;28;20494;-68
2022/09/10 08:49:19;;;;;;;20.92;13.38;;;17.30;99.90;;;;;;5038109;28;20482;-68
2022/09/10 08:52:00;;;;;;;19.52;13.32;;;17.30;99.90;;;;;;5019072;28;20513;-67
2022/09/10 08:54:54;;;;;;;19.60;12.73;;;17.30;99.90;;;;;;5039525;28;20048;-68
2022/09/10 08:57:44;;;;;;;20.15;13.32;;;17.30;99.90;;;;;;5022373;28;20529;-67
2022/09/10 09:00:25;;;;;;;19.95;12.85;;;17.20;99.90;;;;;;5040562;28;20041;-68
2022/09/10 09:02:56;;;;;;;20.85;13.50;;;17.20;99.90;;;;;;5047064;28;20047;-67
2022/09/10 09:05:24;;;;;;;20.48;13.75;;;17.30;99.90;;;;;;5042373;28;20053;-68
2022/09/10 09:07:51;;;;;;;20.77;13.63;;;17.20;99.90;;;;;;5042750;28;20037;-68
2022/09/10 09:10:23;;;;;;;19.52;12.70;;;17.10;99.90;;;;;;5041849;28;20115;-68
2022/09/10 09:13:17;;;;;;;20.65;12.63;;;17.20;99.90;;;;;;5044483;28;20115;-68
2022/09/10 09:16:02;;;;;;;18.02;12.35;;;17.20;99.90;;;;;;5027689;28;20040;-68
2022/09/10 09:18:50;;;;;;;19.10;11.00;;;17.40;99.90;;;;;;5044729;28;20045;-68
2022/09/10 09:21:49;;;;;;;15.05;11.10;;;17.60;99.90;;;;;;5038548;28;20049;-68
2022/09/10 09:24:54;;;;;;;17.20;10.63;;;17.60;99.90;;;;;;5056813;28;20025;-67
2022/09/10 09:27:20;;;;;;;13.95;10.18;;;17.70;99.90;;;;;;5040958;28;20041;-68
2022/09/10 09:29:59;;;;;;;15.40;10.88;;;17.80;99.90;;;;;;5023839;28;20053;-68
2022/09/10 09:32:32;;;;;;;13.48;9.90;;;17.80;99.90;;;;;;5037819;28;20376;-67
2022/09/10 09:35:23;;;;;;;17.00;10.63;;;17.90;99.90;;;;;;5038375;28;20079;-68
2022/09/10 09:38:11;;;;;;;16.55;11.07;;;18.00;99.90;;;;;;5040548;28;20045;-68
2022/09/10 09:40:49;;;;;;;9.70;7.40;;;18.10;99.90;;;;;;5040621;28;20049;-68
2022/09/10 09:43:35;;;;;;;11.32;7.80;;;18.10;99.90;;;;;;5044811;28;20131;-67
2022/09/10 09:46:02;;;;;;;11.48;7.97;;;18.10;99.90;;;;;;5039981;28;20502;-69
2022/09/10 09:48:36;;;;;;;10.98;7.97;;;18.10;99.90;;;;;;5043453;28;20041;-68
2022/09/10 09:51:05;;;;;;;11.95;7.70;;;18.20;99.90;;;;;;5043076;28;20049;-68
2022/09/10 09:53:32;;;;;;;10.25;8.00;;;18.20;99.90;;;;;;5044013;28;20049;-68
2022/09/10 09:56:00;;;;;;;9.00;6.88;;;18.20;99.90;;;;;;5044538;28;20129;-68
2022/09/10 09:58:31;;;;;;;13.57;8.43;;;18.30;99.90;;;;;;5033162;28;20041;-68
2022/09/10 10:01:03;;;;;;;10.65;7.80;;;18.40;99.90;;;;;;5034854;28;20049;-69
2022/09/10 10:03:31;;;;;;;9.82;8.00;;;18.40;99.90;;;;;;5049572;28;20102;-69
2022/09/10 10:06:06;;;;;;;12.45;8.10;;;18.50;99.90;;;;;;5046664;28;20059;-69
2022/09/10 10:08:36;;;;;;;14.02;9.18;;;18.60;99.90;;;;;;5028437;28;20427;-69
2022/09/10 10:11:03;;;;;;;11.90;7.90;;;18.70;99.90;;;;;;5051051;28;20073;-69
2022/09/10 10:13:39;;;;;;;10.68;7.70;;;18.70;99.90;;;;;;5049698;28;20387;-68
2022/09/10 10:16:51;;;;;;;10.60;7.53;;;18.80;99.90;;;;;;5042138;28;20060;-69
2022/09/10 10:19:35;;;;;;;11.52;8.13;;;18.90;99.90;;;;;;4971973;28;20046;-68
2022/09/10 10:22:29;;;;;;;12.07;7.82;;;19.00;99.90;;;;;;4984806;28;20880;-69
2022/09/10 10:24:58;;;;;;;11.07;7.63;;;19.10;99.90;;;;;;5030027;28;20045;-68
2022/09/10 10:27:32;;;;;;;8.90;7.18;;;19.20;99.90;;;;;;5039128;28;20065;-69
2022/09/10 10:30:22;;;;;;;10.15;8.43;;;19.30;99.90;;;;;;5035353;28;20461;-68
2022/09/10 10:33:01;;;;;;;10.10;7.82;;;19.40;99.90;;;;;;5021187;28;20033;-69
2022/09/10 10:35:35;;;;;;;14.35;8.13;;;19.40;99.90;;;;;;5036451;28;20053;-69
2022/09/10 10:38:19;;;;;;;9.57;6.80;;;19.40;99.90;;;;;;5023033;28;20504;-68
2022/09/10 10:41:17;;;;;;;10.57;8.10;;;19.40;99.90;;;;;;5041508;28;20045;-68
2022/09/10 10:43:42;;;;;;;9.60;7.07;;;19.40;99.90;;;;;;5004346;28;20053;-69
2022/09/10 10:46:21;;;;;;;8.40;6.13;;;19.40;99.90;;;;;;5037648;28;20052;-69
2022/09/10 10:49:32;;;;;;;8.75;6.00;;;19.50;99.90;;;;;;5018460;28;20040;-69
2022/09/10 10:52:18;;;;;;;10.25;6.88;;;19.60;99.90;;;;;;5018611;28;20073;-68
2022/09/10 10:55:01;;;;;;;6.57;5.72;;;19.80;99.90;;;;;;5035066;28;20057;-68
2022/09/10 10:57:45;;;;;;;12.25;5.57;;;19.90;99.90;;;;;;5036874;28;20045;-69
2022/09/10 11:00:18;;;;;;;9.98;5.72;;;19.90;99.90;;;;;;5038210;28;20375;-68
2022/09/10 11:02:53;;;;;;;7.88;6.55;;;19.90;99.90;;;;;;5036527;28;20739;-69
2022/09/10 11:05:29;;;;;;;9.95;7.18;;;19.90;99.90;;;;;;5035826;28;20040;-70
2022/09/10 11:08:05;;;;;;;11.07;7.32;;;19.90;99.90;;;;;;5037641;28;20143;-69
2022/09/10 11:10:43;;;;;;;9.30;7.85;;;20.00;99.90;;;;;;5032800;28;20037;-69
2022/09/10 11:13:26;;;;;;;8.98;6.72;;;20.00;99.90;;;;;;5038725;28;20422;-68
2022/09/10 11:15:54;;;;;;;10.68;7.88;;;20.00;99.90;;;;;;5035600;28;20442;-69
2022/09/10 11:18:29;;;;;;;9.43;6.75;;;20.10;99.90;;;;;;5037219;28;20045;-69
2022/09/10 11:21:20;;;;;;;10.43;7.95;;;20.20;99.90;;;;;;5043660;28;20110;-69
2022/09/10 11:24:17;;;;;;;11.57;7.05;;;20.40;99.90;;;;;;5036325;28;20041;-69
2022/09/10 11:27:01;;;;;;;10.60;7.57;;;20.60;99.90;;;;;;5041103;28;20033;-69
2022/09/10 11:29:52;;;;;;;8.57;7.68;;;20.80;99.90;;;;;;5039999;28;20071;-69
2022/09/10 11:32:33;;;;;;;10.88;7.45;;;21.00;99.90;;;;;;5039385;28;20498;-69
2022/09/10 11:35:17;;;;;;;11.57;6.47;;;21.20;99.90;;;;;;5024444;28;20490;-67
2022/09/10 11:38:11;;;;;;;7.13;5.70;;;21.40;99.90;;;;;;5023248;28;20059;-67
2022/09/10 11:40:59;;;;;;;8.73;5.72;;;21.40;99.90;;;;;;5020776;28;20077;-68
2022/09/10 11:43:55;;;;;;;9.27;6.22;;;21.30;99.90;;;;;;5036105;28;20090;-67
2022/09/10 11:46:42;;;;;;;9.38;6.90;;;21.10;99.90;;;;;;5026516;28;20112;-68
2022/09/10 11:49:23;;;;;;;9.52;7.43;;;21.00;99.90;;;;;;5017790;28;20128;-67
2022/09/10 11:51:50;;;;;;;9.65;7.45;;;21.00;99.90;;;;;;5032979;28;20052;-68
2022/09/10 11:54:27;;;;;;;8.85;6.95;;;20.90;99.90;;;;;;5035571;28;21180;-67
2022/09/10 11:57:26;;;;;;;10.20;7.18;;;21.00;99.90;;;;;;5025096;28;20484;-68
2022/09/10 12:00:15;;;;;;;11.98;7.63;;;21.10;99.90;;;;;;5035445;28;20049;-68
2022/09/10 12:03:12;;;;;;;13.00;8.52;;;21.20;99.90;;;;;;5035605;28;20041;-68
2022/09/10 12:05:53;;;;;;;9.45;7.57;;;21.30;99.90;;;;;;5022500;28;20041;-68
2022/09/10 12:08:44;;;;;;;11.40;7.63;;;21.50;99.90;;;;;;5039215;28;20119;-67
2022/09/10 12:11:19;;;;;;;12.38;8.20;;;21.70;99.90;;;;;;5035576;28;20059;-67
2022/09/10 12:13:48;;;;;;;11.75;8.55;;;21.70;99.90;;;;;;5035718;28;20042;-67
2022/09/10 12:16:37;;;;;;;10.93;7.60;;;21.70;99.90;;;;;;5035955;28;20088;-67
2022/09/10 12:19:14;;;;;;;13.60;8.55;;;21.70;99.90;;;;;;5041697;28;20533;-67
2022/09/10 12:21:47;;;;;;;13.38;8.32;;;21.60;99.90;;;;;;5046291;28;20033;-67
2022/09/10 12:24:31;;;;;;;11.77;8.43;;;21.50;99.90;;;;;;5042220;28;20041;-67
2022/09/10 12:26:59;;;;;;;12.13;8.27;;;21.60;99.90;;;;;;5044432;28;20049;-67
2022/09/10 12:29:38;;;;;;;9.98;7.35;;;21.50;99.90;;;;;;5039589;28;20041;-68
2022/09/10 12:32:19;;;;;;;10.13;7.18;;;21.60;99.90;;;;;;5039160;28;20052;-67
2022/09/10 12:34:49;;;;;;;7.93;6.40;;;21.70;99.90;;;;;;5045664;28;20048;-67
2022/09/10 12:37:27;;;;;;;9.82;6.97;;;21.70;99.90;;;;;;5027743;28;20045;-67
2022/09/10 12:40:24;;;;;;;10.75;8.00;;;21.70;99.90;;;;;;5037676;28;20576;-67
2022/09/10 12:42:50;;;;;;;12.07;8.02;;;21.90;99.90;;;;;;5033833;28;20072;-67
2022/09/10 12:45:55;;;;;;;9.43;8.20;;;21.80;99.90;;;;;;5019503;28;20064;-67
2022/09/10 12:48:21;;;;;;;9.88;8.10;;;21.70;99.90;;;;;;5042724;28;20111;-67
2022/09/10 12:50:55;;;;;;;10.98;7.90;;;21.70;99.90;;;;;;5045029;28;20051;-67
2022/09/10 12:53:56;;;;;;;12.60;8.93;;;21.60;99.90;;;;;;5025957;28;20495;-67
2022/09/10 12:56:47;;;;;;;11.07;8.13;;;21.50;99.90;;;;;;5011950;28;20055;-67
2022/09/10 12:59:25;;;;;;;10.00;7.57;;;21.40;99.90;;;;;;5018651;28;20096;-67